Time;durP1;ratioP1;P1;durP2;ratioP2;P2;SDS_P1;SDS_P2;PMS_P1;PMS_P2;Temp;Humidity;BMP_temperature;BMP_pressure;BME280_temperature;BME280_humidity;BME280_pressure;Samples;Min_cycle;Max_cycle;Signal;HPM_P1;HPM_P2
2022/01/06 00:06:24;;;;;;;4.60;4.05;;;;;;;;;;20834007;28;20053;-64
2022/01/06 00:26:28;;;;;;;5.18;4.30;;;;;;;;;;20843000;28;20052;-59
2022/01/06 00:36:30;;;;;;;6.65;4.38;;;;;;;;;;20837470;28;20501;-62
2022/01/06 00:46:32;;;;;;;4.80;4.30;;;;;;;;;;20829958;28;20045;-61
2022/01/06 00:56:35;;;;;;;6.68;5.03;;;;;;;;;;20828672;28;20058;-59
2022/01/06 01:06:37;;;;;;;5.43;4.10;;;;;;;;;;20830098;28;20121;-61
2022/01/06 01:16:39;;;;;;;4.10;3.13;;;;;;;;;;20828236;28;20089;-60
2022/01/06 01:26:40;;;;;;;4.53;4.10;;;;;;;;;;20830555;28;20478;-60
2022/01/06 01:36:43;;;;;;;6.68;5.22;;;;;;;;;;20844015;28;20536;-58
2022/01/06 01:46:57;;;;;;;4.00;3.13;;;;;;;;;;20842770;28;20045;-58
2022/01/06 01:57:00;;;;;;;4.40;3.20;;;;;;;;;;20856665;28;20054;-58
2022/01/06 02:07:03;;;;;;;2.22;1.60;;;;;;;;;;20841553;28;20110;-60
2022/01/06 02:17:05;;;;;;;2.42;1.60;;;;;;;;;;20840550;28;20140;-64
2022/01/06 02:27:07;;;;;;;2.33;1.40;;;;;;;;;;20843707;28;20049;-63
2022/01/06 02:37:09;;;;;;;3.55;2.50;;;;;;;;;;20839702;28;20055;-61
2022/01/06 02:47:12;;;;;;;4.70;3.60;;;;;;;;;;20838200;28;20045;-62
2022/01/06 02:57:15;;;;;;;7.25;5.00;;;;;;;;;;20837088;28;20067;-61
2022/01/06 03:07:18;;;;;;;3.55;2.67;;;;;;;;;;20836503;28;20057;-59
2022/01/06 03:17:21;;;;;;;5.63;4.28;;;;;;;;;;20836884;28;20367;-60
2022/01/06 03:27:25;;;;;;;5.45;4.40;;;;;;;;;;20835869;28;20512;-61
2022/01/06 03:37:29;;;;;;;7.32;5.00;;;;;;;;;;20834816;28;20458;-59
2022/01/06 03:47:32;;;;;;;6.68;5.13;;;;;;;;;;20833479;28;20045;-60
2022/01/06 03:57:36;;;;;;;6.90;5.07;;;;;;;;;;20831832;28;20049;-60
2022/01/06 04:07:39;;;;;;;7.32;5.03;;;;;;;;;;20832309;28;20053;-59
2022/01/06 04:17:43;;;;;;;6.63;5.10;;;;;;;;;;20832649;28;20195;-61
2022/01/06 04:27:47;;;;;;;7.05;5.80;;;;;;;;;;20830738;28;20096;-59
2022/01/06 04:37:49;;;;;;;6.57;5.07;;;;;;;;;;20830568;28;20045;-58
2022/01/06 04:47:58;;;;;;;6.45;5.07;;;;;;;;;;20830165;28;20045;-60
2022/01/06 04:58:00;;;;;;;7.70;5.68;;;;;;;;;;20844531;28;20050;-59
2022/01/06 05:08:02;;;;;;;7.53;5.28;;;;;;;;;;20844143;28;20077;-63
2022/01/06 05:18:08;;;;;;;6.55;4.70;;;;;;;;;;20845597;28;20136;-62
2022/01/06 05:28:10;;;;;;;7.90;5.37;;;;;;;;;;20843330;28;20050;-59
2022/01/06 05:38:16;;;;;;;;;;;;;;;;;;20844642;28;20110;-59
2022/01/06 05:48:18;;;;;;;8.48;5.28;;;;;;;;;;20849863;28;20040;-58
2022/01/06 05:58:21;;;;;;;7.30;5.03;;;;;;;;;;20842903;28;20085;-63
2022/01/06 06:08:23;;;;;;;8.95;6.13;;;;;;;;;;20841356;28;20053;-59
2022/01/06 06:18:25;;;;;;;7.55;4.90;;;;;;;;;;20841136;28;20057;-60
2022/01/06 06:28:27;;;;;;;5.47;4.13;;;;;;;;;;20839845;28;20053;-60
2022/01/06 06:38:29;;;;;;;6.45;4.70;;;;;;;;;;20839498;28;20053;-59
2022/01/06 06:48:32;;;;;;;7.45;5.07;;;;;;;;;;20838815;28;20049;-62
2022/01/06 06:58:33;;;;;;;6.78;5.07;;;;;;;;;;20838180;28;20104;-63
2022/01/06 07:08:35;;;;;;;9.35;5.78;;;;;;;;;;20852152;28;20050;-58
2022/01/06 07:18:38;;;;;;;8.73;5.82;;;;;;;;;;20836879;28;20049;-58
2022/01/06 07:28:41;;;;;;;8.02;5.53;;;;;;;;;;20835513;28;20391;-59
2022/01/06 07:38:43;;;;;;;8.48;5.78;;;;;;;;;;20834645;28;20041;-61
2022/01/06 07:49:03;;;;;;;11.65;7.72;;;;;;;;;;20833831;28;20537;-60
2022/01/06 07:59:04;;;;;;;9.43;7.00;;;;;;;;;;20833230;28;20505;-58
2022/01/06 08:09:06;;;;;;;8.50;6.00;;;;;;;;;;20833384;28;20049;-62
2022/01/06 08:19:08;;;;;;;8.52;6.22;;;;;;;;;;20832944;28;20107;-61
2022/01/06 08:29:10;;;;;;;9.50;6.05;;;;;;;;;;20831064;28;20045;-58
2022/01/06 08:39:11;;;;;;;5.38;3.65;;;;;;;;;;20830551;28;20049;-56
2022/01/06 08:49:14;;;;;;;6.40;4.20;;;;;;;;;;20845187;28;20049;-62
2022/01/06 08:59:15;;;;;;;4.57;3.50;;;;;;;;;;20829783;28;20129;-59
2022/01/06 09:09:18;;;;;;;4.03;2.38;;;;;;;;;;20829737;28;20042;-58
2022/01/06 09:19:20;;;;;;;2.35;1.35;;;;;;;;;;20829357;28;20053;-61
2022/01/06 09:29:21;;;;;;;4.13;1.77;;;;;;;;;;20856264;28;20073;-57
2022/01/06 09:39:23;;;;;;;2.38;1.40;;;;;;;;;;20907733;28;20056;-59
2022/01/06 09:49:25;;;;;;;2.63;1.70;;;;;;;;;;20902334;28;20049;-66
2022/01/06 09:59:27;;;;;;;2.72;1.83;;;;;;;;;;20923693;28;20048;-64
2022/01/06 10:09:29;;;;;;;2.58;1.90;;;;;;;;;;20923686;28;20048;-66
2022/01/06 10:19:32;;;;;;;2.42;1.77;;;;;;;;;;20922880;28;20045;-66
2022/01/06 10:29:38;;;;;;;2.80;1.90;;;;;;;;;;20923017;28;20056;-67
2022/01/06 10:39:44;;;;;;;3.13;2.15;;;;;;;;;;20922214;28;20049;-63
2022/01/06 10:49:47;;;;;;;3.17;1.88;;;;;;;;;;20920612;28;20045;-61
2022/01/06 10:59:49;;;;;;;4.70;2.10;;;;;;;;;;20920669;28;20202;-57
2022/01/06 11:09:55;;;;;;;6.47;1.80;;;;;;;;;;20931380;28;20045;-66
2022/01/06 11:19:57;;;;;;;3.13;1.92;;;;;;;;;;20924254;28;20143;-65
2022/01/06 11:30:09;;;;;;;4.75;3.03;;;;;;;;;;20918576;28;20069;-67
2022/01/06 11:40:12;;;;;;;3.13;2.45;;;;;;;;;;20919960;28;20056;-59
2022/01/06 11:50:24;;;;;;;3.55;2.65;;;;;;;;;;20916491;28;20134;-57
2022/01/06 12:00:29;;;;;;;8.07;5.03;;;;;;;;;;20918441;28;20082;-63
2022/01/06 12:10:39;;;;;;;4.77;3.40;;;;;;;;;;20916672;28;20041;-58
2022/01/06 12:20:43;;;;;;;5.70;4.28;;;;;;;;;;20915452;28;20497;-62
2022/01/06 12:30:46;;;;;;;4.72;3.50;;;;;;;;;;20912986;28;20041;-57
2022/01/06 12:40:48;;;;;;;89.50;49.88;;;;;;;;;;20912682;28;20441;-67
2022/01/06 12:50:50;;;;;;;5.10;3.55;;;;;;;;;;20910861;28;20446;-66
2022/01/06 13:01:03;;;;;;;6.20;3.70;;;;;;;;;;20911800;28;20052;-57
2022/01/06 13:11:08;;;;;;;5.72;3.65;;;;;;;;;;20911217;28;20080;-67
2022/01/06 13:21:10;;;;;;;6.10;4.20;;;;;;;;;;20912315;28;20044;-58
2022/01/06 13:31:17;;;;;;;6.90;5.40;;;;;;;;;;20926904;28;20045;-59
2022/01/06 13:41:25;;;;;;;6.32;5.28;;;;;;;;;;20926184;28;20053;-58
2022/01/06 13:51:29;;;;;;;9.85;5.78;;;;;;;;;;20925506;28;20068;-58
2022/01/06 14:01:31;;;;;;;8.18;5.65;;;;;;;;;;20924702;28;20124;-69
2022/01/06 14:11:33;;;;;;;13.73;7.78;;;;;;;;;;20921965;28;20146;-70
2022/01/06 14:21:35;;;;;;;7.32;4.38;;;;;;;;;;20921022;28;20057;-59
2022/01/06 14:31:39;;;;;;;6.88;5.20;;;;;;;;;;20921264;28;20068;-63
2022/01/06 14:41:41;;;;;;;6.68;4.70;;;;;;;;;;20919450;28;20061;-59
2022/01/06 14:51:43;;;;;;;6.18;5.32;;;;;;;;;;20919997;28;20053;-60
2022/01/06 15:01:45;;;;;;;7.00;4.05;;;;;;;;;;20919589;28;20052;-65
2022/01/06 15:11:49;;;;;;;5.85;4.68;;;;;;;;;;20916945;28;20049;-66
2022/01/06 15:21:51;;;;;;;6.32;4.90;;;;;;;;;;20917842;28;20049;-60
2022/01/06 15:31:54;;;;;;;6.72;5.05;;;;;;;;;;20918454;28;20091;-63
2022/01/06 15:41:56;;;;;;;9.32;5.15;;;;;;;;;;20916120;28;20064;-66
2022/01/06 15:51:58;;;;;;;6.70;4.97;;;;;;;;;;20914506;28;20056;-58
2022/01/06 16:12:04;;;;;;;8.60;5.82;;;;;;;;;;20915138;28;20055;-63
2022/01/06 16:22:06;;;;;;;7.72;5.53;;;;;;;;;;20913888;28;20056;-63
2022/01/06 16:32:19;;;;;;;8.70;6.25;;;;;;;;;;20913248;28;20122;-60
2022/01/06 16:42:22;;;;;;;8.77;5.13;;;;;;;;;;20912267;28;20049;-60
2022/01/06 16:52:24;;;;;;;6.75;5.32;;;;;;;;;;20911619;28;20052;-65
2022/01/06 17:02:26;;;;;;;7.30;6.20;;;;;;;;;;20930818;28;20122;-60
2022/01/06 17:12:29;;;;;;;9.52;6.20;;;;;;;;;;20945401;28;20051;-61
2022/01/06 17:22:31;;;;;;;6.90;5.60;;;;;;;;;;20945542;28;20059;-62
2022/01/06 17:32:34;;;;;;;12.57;5.78;;;;;;;;;;20938513;28;20049;-60
2022/01/06 17:42:36;;;;;;;11.07;7.50;;;;;;;;;;20937806;28;20103;-60
2022/01/06 17:52:38;;;;;;;9.10;6.82;;;;;;;;;;20937395;28;20045;-61
2022/01/06 18:02:42;;;;;;;8.90;5.65;;;;;;;;;;20937293;28;20053;-62
2022/01/06 18:12:44;;;;;;;9.70;6.55;;;;;;;;;;20928050;28;20057;-60
2022/01/06 18:22:48;;;;;;;13.07;8.52;;;;;;;;;;20922701;28;20064;-68
2022/01/06 18:32:51;;;;;;;6.20;3.40;;;;;;;;;;20922248;28;20044;-65
2022/01/06 18:42:54;;;;;;;10.48;3.85;;;;;;;;;;20921458;28;20132;-67
2022/01/06 18:52:56;;;;;;;13.00;9.25;;;;;;;;;;20922474;28;20055;-59
2022/01/06 19:02:58;;;;;;;10.95;6.95;;;;;;;;;;20920007;28;20045;-60
2022/01/06 19:13:02;;;;;;;9.52;6.30;;;;;;;;;;20919067;28;20045;-59
2022/01/06 19:23:04;;;;;;;13.05;8.43;;;;;;;;;;20917000;28;20049;-67
2022/01/06 19:33:06;;;;;;;14.20;9.80;;;;;;;;;;20917580;28;20052;-60
2022/01/06 19:43:09;;;;;;;16.00;11.20;;;;;;;;;;20917746;28;20504;-64
2022/01/06 19:53:12;;;;;;;20.33;11.43;;;;;;;;;;20915785;28;20053;-65
2022/01/06 20:03:14;;;;;;;15.88;11.10;;;;;;;;;;20916093;28;20086;-66
2022/01/06 20:13:22;;;;;;;24.52;14.15;;;;;;;;;;20914701;28;20485;-67
2022/01/06 20:23:24;;;;;;;13.90;9.40;;;;;;;;;;20913972;28;20045;-61
2022/01/06 20:33:26;;;;;;;8.90;4.55;;;;;;;;;;20913387;28;20524;-62
2022/01/06 20:43:29;;;;;;;10.95;6.45;;;;;;;;;;20913822;28;20486;-61
2022/01/06 20:53:31;;;;;;;15.52;9.30;;;;;;;;;;20913166;28;20049;-62
2022/01/06 21:03:36;;;;;;;11.38;5.57;;;;;;;;;;20915504;28;20053;-59
2022/01/06 21:13:41;;;;;;;12.40;6.63;;;;;;;;;;20912484;28;20049;-60
2022/01/06 21:23:46;;;;;;;15.97;8.73;;;;;;;;;;20912041;28;20481;-64
2022/01/06 21:33:49;;;;;;;10.45;6.82;;;;;;;;;;20910983;28;20452;-59
2022/01/06 21:43:54;;;;;;;10.95;7.25;;;;;;;;;;20912015;28;20129;-59
2022/01/06 21:53:58;;;;;;;12.40;8.93;;;;;;;;;;20928790;28;20057;-62
2022/01/06 22:04:00;;;;;;;19.27;9.63;;;;;;;;;;20925405;28;20456;-59
2022/01/06 22:14:03;;;;;;;10.30;7.72;;;;;;;;;;20924073;28;20134;-66
2022/01/06 22:24:05;;;;;;;11.82;7.47;;;;;;;;;;20922698;28;20052;-61
2022/01/06 22:34:08;;;;;;;11.20;8.02;;;;;;;;;;20923555;28;20048;-67
2022/01/06 22:44:09;;;;;;;12.45;8.02;;;;;;;;;;20922271;28;20048;-61
2022/01/06 22:54:11;;;;;;;10.27;6.95;;;;;;;;;;20920565;28;20049;-62
2022/01/06 23:04:14;;;;;;;8.95;6.38;;;;;;;;;;20922111;28;20483;-69
2022/01/06 23:14:16;;;;;;;7.70;5.50;;;;;;;;;;20920159;28;20509;-59
2022/01/06 23:24:18;;;;;;;10.02;6.63;;;;;;;;;;20921264;28;20045;-59
2022/01/06 23:34:20;;;;;;;8.68;6.07;;;;;;;;;;20919689;28;20055;-67
2022/01/06 23:44:22;;;;;;;10.77;6.90;;;;;;;;;;20918130;28;20412;-59
2022/01/06 23:54:24;;;;;;;12.02;7.18;;;;;;;;;;20916202;28;20148;-62
